Terminal Aerodrome Forecast
Issued by NWS

Home | Current Version | Previous Version | Text Only | Print | Product List | Glossary Off
Versions: 1 2 3 4 5 6 7 8 9 10 11 12 13 14 15 16 17 18 19 20 21 22 23 24 25 26

000
FTUS43 KLOT 240904 AAA
TAFMDW
TAF AMD
KMDW 240904Z 2409/2512 02005KT P6SM VCSH SCT008 OVC012
      TEMPO 2410/2413 6SM -RA BR SCT007 OVC010
     FM241600 03008KT P6SM BKN015 OVC070
     FM242100 02013KT P6SM SCT020 OVC090
     FM250400 01016G25KT P6SM FEW020 SCT040 BKN100
     FM251000 01015G23KT P6SM SKC=

USA.gov is the U.S. government's official web portal to all federal, state and local government web resources and services.